首页
METAR-TAF:

METAR-TAF

机场 :

聖地牙哥, 多米尼加共和国

纬度: 19-27N, 经度: 070-42W, 海拔: 183米

当前天气观测

该预报发布于33分钟前的14:00 UTC
风速10节,风向东南
温度 26°C
湿度 84%
气压 1017 hPa
能见度10公里或以上
散云层高于1800英尺

METAR: MDST 221400Z 13010KT 9999 SCT018 26/23 Q1017

时间: 10:33 (14:33 UTC)

预报

该预报发布于4小时和33分钟前的10:00 UTC
预报有效从22日的 12点(UTC)到 23日的 12点(UTC)
风速12节,风向东南
能见度10公里或以上
少量云层高于1800英尺, 积雨云.
散云层高于2000英尺
几率 30%
从 22日的 12点(UTC)到 22日的 18点(UTC)
能見度: 7000
少量云层高于1400英尺, 积雨云.
多云层高于1600英尺
成为
从 22日的 12点(UTC)到 22日的 14点(UTC)
风速节,风向

TAF: MDST 221000Z 2212/2312 13012KT 9999 FEW018CB SCT020 PROB30 2212/2218 7000 RA FEW014CB BKN016 BECMG 2212/2214 00000KT

超过4000个机场的气象观测和天气预报(METAR&TAF报告)。

可查询的气象台以黄色和红色小点在地图上表示。

将鼠标移到小点上方,可查看气象台名称。

然后点击查看天气观测和预报。

如需切换地图:点击带黑十字的绿色按钮放大地图;点击带横线的绿色按钮缩小地图;或者点击绿色箭头查看邻近地区的地图。


METAR-TAF: